Latest Weather Observations for Telfer

IDW60801

Issued at 11:35 am WST Tuesday 21 October 2014 (issued every 30 minutes, with the page automatically refreshed every 10 minutes)

About weather observations | Map of weather stations | Latest weather observations for WA | Other Formats
Station Details ID: 013030 Name: TELFER AERO Lat: -21.71 Lon: 122.23 Height: 291.9 m
Data from the previous 72 hours. | See also: Recent months at Telfer
Date/Time
WST
Temp
°C
App
Temp
°C
Dew
Point
Rel
Hum
%
Delta-T
°C
Wind Press
QNH
hPa
Press
MSL
hPa
Rain
since 9 am
mm
Dir
 
Spd
km/h
Gust
km/h
Spd
kts
Gust
kts
21/11:30am 36.1 32.2 1.0 11 17.9 S 11 20 6 11 1015.9 1014.0 0.0
21/11:00am 36.8 33.3 1.5 11 18.3 SW 9 20 5 11 1016.6 1014.7 0.0
21/10:30am 35.6 31.8 1.8 12 17.5 S 11 19 6 10 1017.1 1015.1 0.0
21/10:00am 35.0 30.0 1.4 12 17.2 SE 17 24 9 13 1017.4 1015.4 0.0
21/09:30am 33.3 27.5 2.2 14 16.0 SE 22 30 12 16 1017.9 1015.9 0.0
21/09:00am 32.1 26.3 2.2 15 15.2 SE 22 32 12 17 1017.9 1015.9 0.0
21/08:30am 31.6 24.6 1.8 15 15.0 SSE 28 33 15 18 1017.9 1015.9 0.0
21/08:00am 30.4 23.8 1.8 16 14.3 SSE 26 32 14 17 1017.7 1015.7 0.0
21/07:30am 29.2 22.2 1.7 17 13.6 SSE 28 37 15 20 1017.6 1015.6 0.0
21/07:00am 28.1 21.8 1.6 18 13.0 SSE 24 33 13 18 1017.6 1015.6 0.0
21/06:30am 27.1 22.2 2.2 20 12.3 SSE 17 24 9 13 1017.4 1015.4 0.0
21/06:00am 26.9 21.1 2.1 20 12.2 S 22 28 12 15 1016.6 1014.7 0.0
21/05:30am 27.0 21.2 2.1 20 12.3 S 22 26 12 14 1016.0 1014.1 0.0
21/05:00am 27.0 22.2 2.8 21 12.0 S 17 22 9 12 1015.8 1013.9 0.0
21/04:30am 26.9 22.2 3.4 22 11.8 SSW 17 22 9 12 1015.4 1013.5 0.0
21/04:00am 25.4 22.4 4.0 25 10.8 SE 9 13 5 7 1015.3 1013.4 0.0
21/03:30am 27.3 23.2 4.4 23 11.8 WSW 15 19 8 10 1014.6 1012.6 0.0
21/03:00am 27.4 24.1 4.5 23 11.8 WSW 11 15 6 8 1014.7 1012.7 0.0
21/02:30am 28.4 24.3 4.6 22 12.3 W 15 17 8 9 1014.5 1012.5 0.0
21/02:00am 28.4 23.9 4.0 21 12.5 SW 17 20 9 11 1014.4 1012.4 0.0
21/01:30am 28.0 25.0 4.3 22 12.2 WSW 9 13 5 7 1014.3 1012.3 0.0
21/01:00am 28.9 25.1 3.7 20 12.9 WSW 13 15 7 8 1014.3 1012.3 0.0
21/12:30am 28.6 25.1 3.5 20 12.8 SW 11 13 6 7 1014.6 1012.6 0.0
21/12:00am 29.1 25.9 3.1 19 13.2 W 9 11 5 6 1014.8 1012.8 0.0
 
Date/Time
WST
Temp
°C
App
Temp
°C
Dew
Point
Rel
Hum
%
Delta-T
°C
Wind Press
QNH
hPa
Press
MSL
hPa
Rain
since 9 am
mm
Dir
 
Spd
km/h
Gust
km/h
Spd
kts
Gust
kts
20/11:30pm 29.3 26.1 3.3 19 13.3 WSW 9 11 5 6 1015.0 1013.0 0.0
20/11:00pm 29.9 27.1 3.0 18 13.7 W 7 11 4 6 1015.1 1013.1 0.0
20/10:30pm 29.9 27.3 3.0 18 13.7 W 6 9 3 5 1015.2 1013.2 0.0
20/10:00pm 30.6 27.4 2.8 17 14.2 WSW 9 9 5 5 1015.3 1013.4 0.0
20/09:30pm 30.8 27.6 2.9 17 14.3 WNW 9 13 5 7 1015.2 1013.2 0.0
20/09:00pm 31.5 28.7 1.8 15 15.0 SW 6 9 3 5 1015.1 1013.1 0.0
20/08:30pm 32.0 29.0 2.1 15 15.2 WSW 7 11 4 6 1015.0 1013.0 0.0
20/08:00pm 32.8 29.0 1.8 14 15.7 W 11 17 6 9 1014.7 1012.7 0.0
20/07:30pm 32.2 28.7 1.3 14 15.5 WNW 9 13 5 7 1014.4 1012.4 0.0
20/07:00pm 33.7 29.1 1.5 13 16.4 W 15 17 8 9 1014.0 1012.0 0.0
20/06:30pm 34.1 29.8 0.7 12 16.8 W 13 15 7 8 1013.6 1011.6 0.0
20/06:00pm 35.0 29.4 0.2 11 17.5 W 19 22 10 12 1013.0 1011.1 0.0
20/05:30pm 36.2 30.4 -0.2 10 18.3 WNW 20 28 11 15 1012.6 1010.7 0.0
20/05:00pm 36.6 30.8 0.1 10 18.5 NW 20 30 11 16 1012.2 1010.3 0.0
20/04:30pm 37.6 31.9 0.8 10 18.9 W 20 33 11 18 1012.1 1010.1 0.0
20/04:00pm 38.0 33.0 1.1 10 19.1 W 17 26 9 14 1012.0 1010.0 0.0
20/03:30pm 37.9 30.7 1.0 10 19.1 W 28 41 15 22 1012.0 1010.0 0.0
20/03:00pm 37.5 33.2 0.7 10 18.9 WNW 13 26 7 14 1012.2 1010.3 0.0
20/02:30pm 38.3 30.6 -0.1 9 19.6 WNW 30 44 16 24 1012.3 1010.4 0.0
20/02:27pm 38.3 30.6 -0.1 9 19.6 WNW 30 44 16 24 1012.3 1010.4 0.0
20/02:00pm 38.3 32.5 -0.1 9 19.6 W 20 26 11 14 1012.6 1010.7 0.0
20/01:30pm 37.4 30.6 0.7 10 18.8 NW 26 39 14 21 1012.9 1011.0 0.0
20/01:00pm 38.4 32.8 1.4 10 19.3 WNW 20 30 11 16 1013.4 1011.4 0.0
20/12:30pm 37.1 31.6 1.8 11 18.4 NW 20 26 11 14 1013.8 1011.8 0.0
20/12:00pm 37.4 31.4 3.2 12 18.2 WNW 24 35 13 19 1014.3 1012.3 0.0
20/11:30am 36.8 30.9 5.9 15 17.1 W 26 33 14 18 1014.9 1012.9 0.0
20/11:00am 36.2 31.6 6.4 16 16.6 W 20 26 11 14 1015.4 1013.5 0.0
20/10:30am 34.8 32.8 8.5 20 15.0 S 9 19 5 10 1015.6 1013.7 0.0
20/10:00am 34.1 31.9 9.4 22 14.3 S 11 19 6 10 1016.0 1014.1 0.0
20/09:30am 32.6 29.9 8.8 23 13.5 S 13 20 7 11 1016.4 1014.5 0.0
20/09:00am 32.0 28.9 8.9 24 13.1 SSE 15 22 8 12 1016.5 1014.6 0.0
20/08:30am 30.9 27.5 9.2 26 12.3 SSE 17 24 9 13 1016.6 1014.7 0.0
20/08:00am 29.9 26.6 9.4 28 11.6 S 17 22 9 12 1016.5 1014.6 0.0
20/07:30am 27.8 24.6 8.6 30 10.6 SW 15 22 8 12 1016.1 1014.2 0.0
20/07:00am 26.0 22.9 8.9 34 9.4 WSW 15 20 8 11 1015.9 1014.0 0.0
20/06:30am 24.7 22.1 9.4 38 8.4 WSW 13 19 7 10 1015.7 1013.8 0.0
20/06:00am 24.2 21.9 10.5 42 7.7 WSW 13 19 7 10 1015.4 1013.5 0.0
20/05:30am 24.2 20.9 10.8 43 7.6 WSW 19 24 10 13 1015.0 1013.0 0.0
20/05:00am 24.2 21.2 10.5 42 7.7 WSW 17 22 9 12 1014.7 1012.7 0.0
20/04:30am 24.5 22.3 10.8 42 7.7 WSW 13 20 7 11 1014.3 1012.3 0.0
20/04:00am 23.9 22.0 10.6 43 7.5 WNW 11 15 6 8 1014.0 1012.0 0.0
20/03:30am 24.2 21.0 10.1 41 7.9 WNW 17 24 9 13 1013.6 1011.6 0.0
20/03:00am 24.2 21.6 9.4 39 8.2 WNW 13 19 7 10 1013.5 1011.5 0.0
20/02:30am 24.3 21.2 8.7 37 8.5 WNW 15 19 8 10 1013.3 1011.3 0.0
20/02:00am 23.4 21.6 7.1 35 8.6 NNW 6 9 3 5 1013.5 1011.5 0.0
20/01:30am 24.4 21.5 6.6 32 9.3 NW 11 17 6 9 1013.5 1011.5 0.0
20/01:00am 25.0 21.3 6.2 30 9.8 NW 15 19 8 10 1013.6 1011.6 0.0
20/12:30am 25.4 21.1 5.1 27 10.4 NW 17 20 9 11 1013.7 1011.7 0.0
20/12:00am 26.1 21.3 4.6 25 11.0 NW 19 22 10 12 1014.0 1012.0 0.0
 
Date/Time
WST
Temp
°C
App
Temp
°C
Dew
Point
Rel
Hum
%
Delta-T
°C
Wind Press
QNH
hPa
Press
MSL
hPa
Rain
since 9 am
mm
Dir
 
Spd
km/h
Gust
km/h
Spd
kts
Gust
kts
19/11:30pm 26.6 22.1 4.4 24 11.3 NW 17 20 9 11 1014.1 1012.1 0.0
19/11:00pm 27.3 22.8 4.4 23 11.8 NW 17 22 9 12 1014.3 1012.3 0.0
19/10:30pm 27.6 22.8 4.6 23 11.9 NW 19 24 10 13 1014.4 1012.4 0.0
19/10:00pm 28.7 23.9 4.9 22 12.4 NW 19 24 10 13 1014.6 1012.6 0.0
19/09:30pm 28.0 24.3 6.2 25 11.6 NW 15 19 8 10 1014.4 1012.4 0.0
19/09:00pm 29.0 24.9 6.4 24 12.1 NW 17 20 9 11 1014.2 1012.2 0.0
19/08:30pm 30.3 26.7 6.9 23 12.8 NW 15 22 8 12 1013.8 1011.8 0.0
19/08:00pm 30.9 27.3 6.7 22 13.2 WNW 15 19 8 10 1013.3 1011.3 0.0
19/07:30pm 31.6 28.2 5.9 20 13.9 WNW 13 17 7 9 1012.8 1010.9 0.0
19/07:00pm 32.3 28.5 5.7 19 14.4 WNW 15 19 8 10 1012.3 1010.4 0.0
19/06:30pm 33.2 29.4 5.7 18 14.9 WNW 15 20 8 11 1011.9 1009.9 0.0
19/06:00pm 34.4 29.1 5.0 16 15.9 NW 22 32 12 17 1011.5 1009.5 0.0
19/05:30pm 35.0 29.4 5.4 16 16.1 NW 24 32 13 17 1011.2 1009.2 0.0
19/05:00pm 35.6 30.3 6.8 17 16.1 NNW 24 37 13 20 1010.9 1008.9 0.0
19/04:30pm 36.2 30.4 6.4 16 16.6 NW 26 41 14 22 1010.7 1008.7 0.0
19/04:00pm 36.3 30.6 6.5 16 16.6 NNW 26 41 14 22 1010.7 1008.7 0.0
19/03:47pm 36.3 30.4 7.4 17 16.4 NNW 28 46 15 25 1010.7 1008.7 0.0
19/03:30pm 36.1 30.7 6.3 16 16.6 NNW 24 43 13 23 1010.7 1008.7 0.0
19/03:12pm 37.1 31.1 7.1 16 17.0 NW 28 46 15 25 1010.8 1008.8 0.0
19/03:00pm 36.7 31.4 6.8 16 16.8 NNW 24 39 13 21 1010.9 1008.9 0.0
19/02:53pm 36.3 30.2 6.5 16 16.6 NNW 28 46 15 25 1010.9 1008.9 0.0
19/02:30pm 36.8 31.1 6.9 16 16.8 NNW 26 46 14 25 1011.0 1009.0 0.0
19/02:24pm 36.4 30.1 5.6 15 17.0 NNW 28 46 15 25 1011.1 1009.1 0.0
19/02:00pm 36.6 29.8 6.7 16 16.8 WNW 32 43 17 23 1011.1 1009.1 0.0
19/01:30pm 36.5 31.7 7.5 17 16.4 NW 22 39 12 21 1011.6 1009.6 0.0
19/01:00pm 36.3 30.6 8.2 18 16.1 NW 28 39 15 21 1012.0 1010.0 0.0
19/12:30pm 35.8 30.9 8.6 19 15.6 NW 24 41 13 22 1012.4 1010.5 0.0
19/12:00pm 35.0 32.2 8.7 20 15.1 N 13 20 7 11 1012.9 1011.0 0.0
19/11:30am 34.3 30.8 10.2 23 14.1 WNW 19 35 10 19 1013.4 1011.4 0.0
19/11:00am 33.9 29.4 9.9 23 14.0 WNW 24 37 13 20 1013.9 1011.9 0.0
19/10:30am 33.4 29.5 9.4 23 13.8 WNW 20 22 11 12 1014.3 1012.3 0.0
19/10:00am 33.2 29.2 10.5 25 13.3 W 22 32 12 17 1014.7 1012.7 0.0
19/09:30am 32.4 29.7 11.6 28 12.3 WSW 17 24 9 13 1014.8 1012.8 0.0
19/09:00am 31.0 28.0 11.9 31 11.3 W 19 26 10 14 1015.0 1013.0 0.0
19/08:30am 30.3 28.3 12.7 34 10.5 WSW 15 20 8 11 1015.0 1013.0 0.0
19/08:00am 28.6 27.2 12.1 36 9.7 WSW 11 17 6 9 1015.0 1013.0 0.0
19/07:30am 26.7 25.5 12.7 42 8.2 W 11 17 6 9 1014.8 1012.8 0.0
19/07:00am 24.0 23.9 13.8 53 6.0 NNE 7 9 4 5 1014.5 1012.5 0.0
19/06:30am 22.6 22.1 13.9 58 5.1 N 9 15 5 8 1014.1 1012.1 0.0
19/06:00am 22.2 22.5 13.5 57 5.1 NW 4 7 2 4 1013.6 1011.6 0.0
19/05:30am 22.7 22.4 13.2 55 5.5 N 7 17 4 9 1013.3 1011.3 0.0
19/05:00am 22.5 22.3 13.6 57 5.2 WNW 7 11 4 6 1012.8 1010.9 0.0
19/04:30am 22.4 23.1 13.5 57 5.2 NW 2 7 1 4 1012.7 1010.8 0.0
19/04:00am 22.8 22.7 13.3 55 5.6 N 6 7 3 4 1012.6 1010.7 0.0
19/03:30am 23.9 23.6 13.2 51 6.3 N 7 13 4 7 1012.4 1010.5 0.0
19/03:00am 25.3 22.7 13.2 47 7.1 WNW 19 24 10 13 1012.1 1010.1 0.0
19/02:30am 25.9 22.8 13.4 46 7.4 W 22 32 12 17 1012.0 1010.0 0.0
19/02:00am 26.3 23.2 13.4 45 7.7 W 22 30 12 16 1011.9 1009.9 0.0
19/01:30am 26.4 24.2 13.2 44 7.8 WNW 17 20 9 11 1012.1 1010.1 0.0
19/01:00am 27.3 24.4 12.9 41 8.5 W 20 26 11 14 1012.2 1010.3 0.0
19/12:30am 28.1 24.7 12.4 37 9.3 W 22 30 12 16 1012.4 1010.5 0.0
19/12:00am 28.8 24.3 11.4 34 10.1 W 26 32 14 17 1012.5 1010.6 0.0
 
Date/Time
WST
Temp
°C
App
Temp
°C
Dew
Point
Rel
Hum
%
Delta-T
°C
Wind Press
QNH
hPa
Press
MSL
hPa
Rain
since 9 am
mm
Dir
 
Spd
km/h
Gust
km/h
Spd
kts
Gust
kts
18/11:30pm 28.8 23.8 10.9 33 10.3 W 28 33 15 18 1012.8 1010.9 0.0
18/11:00pm 29.1 25.2 10.7 32 10.6 W 22 28 12 15 1012.8 1010.9 0.0
18/10:30pm 29.5 25.2 10.6 31 10.9 W 24 30 13 16 1012.6 1010.7 0.0
18/10:00pm 29.8 24.6 10.4 30 11.2 W 28 39 15 21 1012.7 1010.8 0.0
18/09:30pm 30.0 23.7 11.0 31 11.1 W 35 44 19 24 1012.9 1011.0 0.0
18/09:00pm 30.9 23.6 10.3 28 11.9 W 39 48 21 26 1012.7 1010.8 0.0
18/08:30pm 31.7 24.5 10.4 27 12.4 W 39 52 21 28 1012.5 1010.6 0.0
18/08:28pm 31.8 25.0 10.5 27 12.4 W 37 46 20 25 1012.5 1010.6 0.0
18/08:00pm 32.6 26.6 10.0 25 13.1 WNW 32 43 17 23 1012.1 1010.1 0.0
18/07:44pm 32.7 25.2 9.5 24 13.3 NW 39 48 21 26 1011.8 1009.8 0.0
18/07:30pm 33.0 29.8 8.5 22 13.9 NW 15 19 8 10 1011.6 1009.6 0.0
18/07:00pm 33.4 30.7 7.4 20 14.5 NW 11 15 6 8 1011.2 1009.2 0.0
18/06:30pm 34.4 30.8 6.7 18 15.4 NW 15 17 8 9 1010.8 1008.8 0.0
18/06:00pm 34.9 31.2 6.2 17 15.9 NW 15 26 8 14 1010.5 1008.5 0.0
18/05:30pm 35.6 30.9 5.0 15 16.6 NW 19 28 10 15 1010.3 1008.3 0.0
18/05:00pm 36.1 31.8 3.3 13 17.4 NW 15 22 8 12 1009.9 1007.9 0.0
18/04:30pm 36.9 32.1 2.8 12 18.0 NW 17 24 9 13 1009.8 1007.8 0.0
18/04:00pm 37.1 31.0 3.0 12 18.1 WNW 24 30 13 16 1009.8 1007.8 0.0
18/03:30pm 37.3 31.8 1.9 11 18.5 NW 20 26 11 14 1009.9 1007.9 0.0
18/03:00pm 37.5 32.2 2.1 11 18.6 NW 19 30 10 16 1010.1 1008.1 0.0
18/02:30pm 37.0 32.1 1.7 11 18.4 N 17 24 9 13 1010.2 1008.2 0.0
18/02:00pm 37.0 32.1 1.7 11 18.4 NNW 17 30 9 16 1010.6 1008.6 0.0
18/01:30pm 37.3 33.1 1.9 11 18.5 SW 13 20 7 11 1010.8 1008.8 0.0
18/01:00pm 37.1 32.2 1.8 11 18.4 WNW 17 30 9 16 1011.1 1009.1 0.0
18/12:30pm 36.2 32.1 2.3 12 17.7 NW 13 22 7 12 1011.6 1009.6 0.0
18/12:00pm 36.2 32.1 2.3 12 17.7 WNW 13 22 7 12 1012.2 1010.3 0.0

Other Formats:

Comma delimited format used in spreadsheet applications
http://www.bom.gov.au/fwo/IDW60801/IDW60801.94319.axf

JavaScript Object Notation format (JSON) in row-major order
http://www.bom.gov.au/fwo/IDW60801/IDW60801.94319.json